sensor_id;sensor_type;location;lat;lon;timestamp;temperature;humidity
54178;DHT22;40085;53.004;6.770;2023-02-15T00:01:39;2.30;99.90
54178;DHT22;40085;53.004;6.770;2023-02-15T00:04:06;2.20;99.90
54178;DHT22;40085;53.004;6.770;2023-02-15T00:06:31;2.20;99.90
54178;DHT22;40085;53.004;6.770;2023-02-15T00:08:57;2.30;99.90
54178;DHT22;40085;53.004;6.770;2023-02-15T00:11:23;2.20;99.90
54178;DHT22;40085;53.004;6.770;2023-02-15T00:14:10;2.20;99.90
54178;DHT22;40085;53.004;6.770;2023-02-15T00:16:37;2.20;99.90
54178;DHT22;40085;53.004;6.770;2023-02-15T00:19:03;2.20;99.90
54178;DHT22;40085;53.004;6.770;2023-02-15T00:21:31;2.20;99.90
54178;DHT22;40085;53.004;6.770;2023-02-15T00:23:58;2.20;99.90
54178;DHT22;40085;53.004;6.770;2023-02-15T00:26:24;2.20;99.90
54178;DHT22;40085;53.004;6.770;2023-02-15T00:28:50;2.20;99.90
54178;DHT22;40085;53.004;6.770;2023-02-15T00:31:15;2.20;99.90
54178;DHT22;40085;53.004;6.770;2023-02-15T00:33:41;2.10;99.90
54178;DHT22;40085;53.004;6.770;2023-02-15T00:36:09;2.10;99.90
54178;DHT22;40085;53.004;6.770;2023-02-15T00:38:35;2.10;99.90
54178;DHT22;40085;53.004;6.770;2023-02-15T00:41:03;2.10;99.90
54178;DHT22;40085;53.004;6.770;2023-02-15T00:43:31;2.00;99.90
54178;DHT22;40085;53.004;6.770;2023-02-15T00:45:57;2.00;99.90
54178;DHT22;40085;53.004;6.770;2023-02-15T00:48:23;2.30;99.90
54178;DHT22;40085;53.004;6.770;2023-02-15T00:50:51;2.00;99.90
54178;DHT22;40085;53.004;6.770;2023-02-15T00:53:17;2.00;99.90
54178;DHT22;40085;53.004;6.770;2023-02-15T00:55:43;1.90;99.90
54178;DHT22;40085;53.004;6.770;2023-02-15T00:58:10;1.90;99.90
54178;DHT22;40085;53.004;6.770;2023-02-15T01:00:36;1.90;99.90
54178;DHT22;40085;53.004;6.770;2023-02-15T01:03:02;1.90;99.90
54178;DHT22;40085;53.004;6.770;2023-02-15T01:05:28;2.20;99.90
54178;DHT22;40085;53.004;6.770;2023-02-15T01:07:58;2.00;99.90
54178;DHT22;40085;53.004;6.770;2023-02-15T01:10:25;1.90;99.90
54178;DHT22;40085;53.004;6.770;2023-02-15T01:12:52;1.90;99.90
54178;DHT22;40085;53.004;6.770;2023-02-15T01:15:18;1.80;99.90
54178;DHT22;40085;53.004;6.770;2023-02-15T01:17:44;1.80;99.90
54178;DHT22;40085;53.004;6.770;2023-02-15T01:20:14;1.80;99.90
54178;DHT22;40085;53.004;6.770;2023-02-15T01:22:40;2.00;99.90
54178;DHT22;40085;53.004;6.770;2023-02-15T01:25:06;1.80;99.90
54178;DHT22;40085;53.004;6.770;2023-02-15T01:27:32;1.80;99.90
54178;DHT22;40085;53.004;6.770;2023-02-15T01:29:57;1.80;99.90
54178;DHT22;40085;53.004;6.770;2023-02-15T01:32:23;1.70;99.90
54178;DHT22;40085;53.004;6.770;2023-02-15T01:34:49;1.70;99.90
54178;DHT22;40085;53.004;6.770;2023-02-15T01:37:14;1.70;99.90
54178;DHT22;40085;53.004;6.770;2023-02-15T01:39:40;1.70;99.90
54178;DHT22;40085;53.004;6.770;2023-02-15T01:42:11;1.70;99.90
54178;DHT22;40085;53.004;6.770;2023-02-15T01:47:29;1.70;99.90
54178;DHT22;40085;53.004;6.770;2023-02-15T01:52:29;1.70;99.90
54178;DHT22;40085;53.004;6.770;2023-02-15T01:54:55;1.70;99.90
54178;DHT22;40085;53.004;6.770;2023-02-15T01:57:23;1.70;99.90
54178;DHT22;40085;53.004;6.770;2023-02-15T01:59:53;1.70;99.90
54178;DHT22;40085;53.004;6.770;2023-02-15T02:02:22;1.70;99.90
54178;DHT22;40085;53.004;6.770;2023-02-15T02:04:54;1.70;99.90
54178;DHT22;40085;53.004;6.770;2023-02-15T02:07:25;1.70;99.90
54178;DHT22;40085;53.004;6.770;2023-02-15T02:09:52;1.60;99.90
54178;DHT22;40085;53.004;6.770;2023-02-15T02:12:18;1.70;99.90
54178;DHT22;40085;53.004;6.770;2023-02-15T02:14:47;1.60;99.90
54178;DHT22;40085;53.004;6.770;2023-02-15T02:36:49;1.60;99.90
54178;DHT22;40085;53.004;6.770;2023-02-15T02:44:49;1.50;99.90
54178;DHT22;40085;53.004;6.770;2023-02-15T02:47:50;1.60;99.90
54178;DHT22;40085;53.004;6.770;2023-02-15T02:50:25;1.50;99.90
54178;DHT22;40085;53.004;6.770;2023-02-15T02:52:53;1.50;99.90
54178;DHT22;40085;53.004;6.770;2023-02-15T02:55:25;1.60;99.90
54178;DHT22;40085;53.004;6.770;2023-02-15T03:01:06;1.50;99.90
54178;DHT22;40085;53.004;6.770;2023-02-15T03:03:39;1.50;99.90
54178;DHT22;40085;53.004;6.770;2023-02-15T03:06:10;1.50;99.90
54178;DHT22;40085;53.004;6.770;2023-02-15T03:08:43;1.50;99.90
54178;DHT22;40085;53.004;6.770;2023-02-15T03:11:11;1.50;99.90
54178;DHT22;40085;53.004;6.770;2023-02-15T03:13:37;1.40;99.90
54178;DHT22;40085;53.004;6.770;2023-02-15T03:16:05;1.40;99.90
54178;DHT22;40085;53.004;6.770;2023-02-15T03:18:54;1.40;99.90
54178;DHT22;40085;53.004;6.770;2023-02-15T03:21:30;1.40;99.90
54178;DHT22;40085;53.004;6.770;2023-02-15T03:24:06;1.40;99.90
54178;DHT22;40085;53.004;6.770;2023-02-15T03:26:34;1.30;99.90
54178;DHT22;40085;53.004;6.770;2023-02-15T03:29:03;1.30;99.90
54178;DHT22;40085;53.004;6.770;2023-02-15T03:31:33;1.40;99.90
54178;DHT22;40085;53.004;6.770;2023-02-15T03:34:07;1.40;99.90
54178;DHT22;40085;53.004;6.770;2023-02-15T03:42:01;1.30;99.90
54178;DHT22;40085;53.004;6.770;2023-02-15T03:44:32;1.30;99.90
54178;DHT22;40085;53.004;6.770;2023-02-15T03:52:08;1.20;99.90
54178;DHT22;40085;53.004;6.770;2023-02-15T03:54:36;1.20;99.90
54178;DHT22;40085;53.004;6.770;2023-02-15T03:57:28;1.30;99.90
54178;DHT22;40085;53.004;6.770;2023-02-15T04:05:41;1.20;99.90
54178;DHT22;40085;53.004;6.770;2023-02-15T04:08:08;1.20;99.90
54178;DHT22;40085;53.004;6.770;2023-02-15T04:10:34;1.20;99.90
54178;DHT22;40085;53.004;6.770;2023-02-15T04:13:22;1.20;99.90
54178;DHT22;40085;53.004;6.770;2023-02-15T04:15:48;1.20;99.90
54178;DHT22;40085;53.004;6.770;2023-02-15T04:21:14;1.10;99.90
54178;DHT22;40085;53.004;6.770;2023-02-15T04:23:58;1.10;99.90
54178;DHT22;40085;53.004;6.770;2023-02-15T04:26:42;1.10;99.90
54178;DHT22;40085;53.004;6.770;2023-02-15T04:29:08;1.10;99.90
54178;DHT22;40085;53.004;6.770;2023-02-15T04:31:33;1.00;99.90
54178;DHT22;40085;53.004;6.770;2023-02-15T04:33:59;1.00;99.90
54178;DHT22;40085;53.004;6.770;2023-02-15T04:36:25;1.10;99.90
54178;DHT22;40085;53.004;6.770;2023-02-15T04:38:50;1.00;99.90
54178;DHT22;40085;53.004;6.770;2023-02-15T04:41:16;1.00;99.90
54178;DHT22;40085;53.004;6.770;2023-02-15T04:43:41;1.10;99.90
54178;DHT22;40085;53.004;6.770;2023-02-15T04:46:07;1.10;99.90
54178;DHT22;40085;53.004;6.770;2023-02-15T04:48:32;1.20;99.90
54178;DHT22;40085;53.004;6.770;2023-02-15T04:50:58;1.30;99.90
54178;DHT22;40085;53.004;6.770;2023-02-15T04:53:24;1.30;99.90
54178;DHT22;40085;53.004;6.770;2023-02-15T04:55:49;1.40;99.90
54178;DHT22;40085;53.004;6.770;2023-02-15T04:58:15;1.40;99.90
54178;DHT22;40085;53.004;6.770;2023-02-15T05:00:40;1.40;99.90
54178;DHT22;40085;53.004;6.770;2023-02-15T05:03:06;1.40;99.90
54178;DHT22;40085;53.004;6.770;2023-02-15T05:05:31;1.40;99.90
54178;DHT22;40085;53.004;6.770;2023-02-15T05:07:57;1.40;99.90
54178;DHT22;40085;53.004;6.770;2023-02-15T05:10:23;1.40;99.90
54178;DHT22;40085;53.004;6.770;2023-02-15T05:12:48;1.50;99.90
54178;DHT22;40085;53.004;6.770;2023-02-15T05:15:14;1.50;99.90
54178;DHT22;40085;53.004;6.770;2023-02-15T05:17:40;1.60;99.90
54178;DHT22;40085;53.004;6.770;2023-02-15T05:20:06;1.60;99.90
54178;DHT22;40085;53.004;6.770;2023-02-15T05:22:32;1.60;99.90
54178;DHT22;40085;53.004;6.770;2023-02-15T05:24:58;1.80;99.90
54178;DHT22;40085;53.004;6.770;2023-02-15T05:27:41;1.80;99.90
54178;DHT22;40085;53.004;6.770;2023-02-15T05:30:26;1.80;99.90
54178;DHT22;40085;53.004;6.770;2023-02-15T05:32:51;1.80;99.90
54178;DHT22;40085;53.004;6.770;2023-02-15T05:35:17;1.80;99.90
54178;DHT22;40085;53.004;6.770;2023-02-15T05:37:43;2.00;99.90
54178;DHT22;40085;53.004;6.770;2023-02-15T05:40:09;2.00;99.90
54178;DHT22;40085;53.004;6.770;2023-02-15T05:42:35;2.10;99.90
54178;DHT22;40085;53.004;6.770;2023-02-15T05:45:01;2.00;99.90
54178;DHT22;40085;53.004;6.770;2023-02-15T05:47:26;2.00;99.90
54178;DHT22;40085;53.004;6.770;2023-02-15T05:49:52;2.10;99.90
54178;DHT22;40085;53.004;6.770;2023-02-15T05:52:18;2.00;99.90
54178;DHT22;40085;53.004;6.770;2023-02-15T05:54:43;2.00;99.90
54178;DHT22;40085;53.004;6.770;2023-02-15T05:57:09;2.00;99.90
54178;DHT22;40085;53.004;6.770;2023-02-15T05:59:34;2.00;99.90
54178;DHT22;40085;53.004;6.770;2023-02-15T06:02:00;2.00;99.90
54178;DHT22;40085;53.004;6.770;2023-02-15T06:04:25;1.90;99.90
54178;DHT22;40085;53.004;6.770;2023-02-15T06:06:51;1.90;99.90
54178;DHT22;40085;53.004;6.770;2023-02-15T06:09:17;1.90;99.90
54178;DHT22;40085;53.004;6.770;2023-02-15T06:11:45;1.90;99.90
54178;DHT22;40085;53.004;6.770;2023-02-15T06:14:11;1.90;99.90
54178;DHT22;40085;53.004;6.770;2023-02-15T06:16:37;1.90;99.90
54178;DHT22;40085;53.004;6.770;2023-02-15T06:19:03;1.90;99.90
54178;DHT22;40085;53.004;6.770;2023-02-15T06:21:29;1.90;99.90
54178;DHT22;40085;53.004;6.770;2023-02-15T06:23:55;1.90;99.90
54178;DHT22;40085;53.004;6.770;2023-02-15T06:26:20;1.90;99.90
54178;DHT22;40085;53.004;6.770;2023-02-15T06:28:46;1.90;99.90
54178;DHT22;40085;53.004;6.770;2023-02-15T06:31:12;1.90;99.90
54178;DHT22;40085;53.004;6.770;2023-02-15T06:33:37;1.90;99.90
54178;DHT22;40085;53.004;6.770;2023-02-15T06:36:03;1.80;99.90
54178;DHT22;40085;53.004;6.770;2023-02-15T06:38:29;1.90;99.90
54178;DHT22;40085;53.004;6.770;2023-02-15T06:40:55;1.90;99.90
54178;DHT22;40085;53.004;6.770;2023-02-15T06:43:21;1.90;99.90
54178;DHT22;40085;53.004;6.770;2023-02-15T06:45:46;1.80;99.90
54178;DHT22;40085;53.004;6.770;2023-02-15T06:48:12;1.80;99.90
54178;DHT22;40085;53.004;6.770;2023-02-15T06:50:38;1.70;99.90
54178;DHT22;40085;53.004;6.770;2023-02-15T06:53:03;1.70;99.90
54178;DHT22;40085;53.004;6.770;2023-02-15T06:55:29;1.80;99.90
54178;DHT22;40085;53.004;6.770;2023-02-15T06:57:55;1.70;99.90
54178;DHT22;40085;53.004;6.770;2023-02-15T07:00:21;1.70;99.90
54178;DHT22;40085;53.004;6.770;2023-02-15T07:02:53;1.80;99.90
54178;DHT22;40085;53.004;6.770;2023-02-15T07:05:20;1.80;99.90
54178;DHT22;40085;53.004;6.770;2023-02-15T07:07:46;1.80;99.90
54178;DHT22;40085;53.004;6.770;2023-02-15T07:10:12;1.90;99.90
54178;DHT22;40085;53.004;6.770;2023-02-15T07:12:37;1.80;99.90
54178;DHT22;40085;53.004;6.770;2023-02-15T07:15:15;1.90;99.90
54178;DHT22;40085;53.004;6.770;2023-02-15T07:17:41;1.90;99.90
54178;DHT22;40085;53.004;6.770;2023-02-15T07:20:10;3.10;99.90
54178;DHT22;40085;53.004;6.770;2023-02-15T07:22:37;1.90;99.90
54178;DHT22;40085;53.004;6.770;2023-02-15T07:25:07;1.90;99.90
54178;DHT22;40085;53.004;6.770;2023-02-15T07:27:33;1.90;99.90
54178;DHT22;40085;53.004;6.770;2023-02-15T07:29:59;2.00;99.90
54178;DHT22;40085;53.004;6.770;2023-02-15T07:32:28;1.90;99.90
54178;DHT22;40085;53.004;6.770;2023-02-15T07:34:54;2.00;99.90
54178;DHT22;40085;53.004;6.770;2023-02-15T07:37:20;2.10;99.90
54178;DHT22;40085;53.004;6.770;2023-02-15T07:39:45;2.10;99.90
54178;DHT22;40085;53.004;6.770;2023-02-15T07:42:11;2.10;99.90
54178;DHT22;40085;53.004;6.770;2023-02-15T07:44:36;2.20;99.90
54178;DHT22;40085;53.004;6.770;2023-02-15T07:47:02;2.30;99.90
54178;DHT22;40085;53.004;6.770;2023-02-15T07:49:27;2.30;99.90
54178;DHT22;40085;53.004;6.770;2023-02-15T07:51:53;2.40;99.90
54178;DHT22;40085;53.004;6.770;2023-02-15T07:54:19;2.50;99.90
54178;DHT22;40085;53.004;6.770;2023-02-15T07:56:44;2.50;99.90
54178;DHT22;40085;53.004;6.770;2023-02-15T07:59:10;2.60;99.90
54178;DHT22;40085;53.004;6.770;2023-02-15T08:01:37;2.70;99.90
54178;DHT22;40085;53.004;6.770;2023-02-15T08:04:04;2.80;99.90
54178;DHT22;40085;53.004;6.770;2023-02-15T08:06:34;2.80;99.90
54178;DHT22;40085;53.004;6.770;2023-02-15T08:09:01;2.90;99.90
54178;DHT22;40085;53.004;6.770;2023-02-15T08:11:30;2.90;99.90
54178;DHT22;40085;53.004;6.770;2023-02-15T08:14:09;3.00;99.90
54178;DHT22;40085;53.004;6.770;2023-02-15T08:16:45;3.10;99.90
54178;DHT22;40085;53.004;6.770;2023-02-15T08:19:20;3.20;99.90
54178;DHT22;40085;53.004;6.770;2023-02-15T08:21:52;3.20;99.90
54178;DHT22;40085;53.004;6.770;2023-02-15T08:24:20;3.30;99.90
54178;DHT22;40085;53.004;6.770;2023-02-15T08:26:46;3.40;99.90
54178;DHT22;40085;53.004;6.770;2023-02-15T08:29:17;3.50;99.90
54178;DHT22;40085;53.004;6.770;2023-02-15T08:31:44;3.50;99.90
54178;DHT22;40085;53.004;6.770;2023-02-15T08:34:13;3.60;99.90
54178;DHT22;40085;53.004;6.770;2023-02-15T08:36:39;3.60;99.90
54178;DHT22;40085;53.004;6.770;2023-02-15T08:39:06;3.70;99.90
54178;DHT22;40085;53.004;6.770;2023-02-15T08:41:36;3.70;99.90
54178;DHT22;40085;53.004;6.770;2023-02-15T08:44:07;3.70;99.90
54178;DHT22;40085;53.004;6.770;2023-02-15T08:46:35;3.80;99.90
54178;DHT22;40085;53.004;6.770;2023-02-15T08:49:02;3.80;99.90
54178;DHT22;40085;53.004;6.770;2023-02-15T08:51:30;3.90;99.90
54178;DHT22;40085;53.004;6.770;2023-02-15T08:53:58;3.90;99.90
54178;DHT22;40085;53.004;6.770;2023-02-15T08:56:29;3.90;99.90
54178;DHT22;40085;53.004;6.770;2023-02-15T08:58:56;3.90;99.90
54178;DHT22;40085;53.004;6.770;2023-02-15T09:01:24;4.00;99.90
54178;DHT22;40085;53.004;6.770;2023-02-15T09:03:51;4.10;99.90
54178;DHT22;40085;53.004;6.770;2023-02-15T09:06:20;4.20;99.90
54178;DHT22;40085;53.004;6.770;2023-02-15T09:08:46;4.30;99.90
54178;DHT22;40085;53.004;6.770;2023-02-15T09:11:23;4.30;99.90
54178;DHT22;40085;53.004;6.770;2023-02-15T09:13:52;4.40;99.90
54178;DHT22;40085;53.004;6.770;2023-02-15T09:16:19;4.50;99.90
54178;DHT22;40085;53.004;6.770;2023-02-15T09:18:45;4.70;99.90
54178;DHT22;40085;53.004;6.770;2023-02-15T09:21:16;4.60;99.90
54178;DHT22;40085;53.004;6.770;2023-02-15T09:23:43;4.70;99.90
54178;DHT22;40085;53.004;6.770;2023-02-15T09:26:15;4.70;99.90
54178;DHT22;40085;53.004;6.770;2023-02-15T09:28:41;4.70;99.90
54178;DHT22;40085;53.004;6.770;2023-02-15T09:31:12;4.70;99.90
54178;DHT22;40085;53.004;6.770;2023-02-15T09:33:39;4.80;99.90
54178;DHT22;40085;53.004;6.770;2023-02-15T09:36:12;4.80;99.90
54178;DHT22;40085;53.004;6.770;2023-02-15T09:38:39;4.90;99.90
54178;DHT22;40085;53.004;6.770;2023-02-15T09:52:23;5.20;99.90
54178;DHT22;40085;53.004;6.770;2023-02-15T10:06:24;5.80;99.90
54178;DHT22;40085;53.004;6.770;2023-02-15T10:09:11;5.90;99.90
54178;DHT22;40085;53.004;6.770;2023-02-15T10:11:54;6.00;99.90
54178;DHT22;40085;53.004;6.770;2023-02-15T10:22:58;6.20;99.90
54178;DHT22;40085;53.004;6.770;2023-02-15T10:25:42;6.30;99.90
54178;DHT22;40085;53.004;6.770;2023-02-15T10:31:28;6.60;99.90
54178;DHT22;40085;53.004;6.770;2023-02-15T10:34:06;6.70;99.90
54178;DHT22;40085;53.004;6.770;2023-02-15T10:42:37;7.00;99.90
54178;DHT22;40085;53.004;6.770;2023-02-15T10:45:21;7.00;99.90
54178;DHT22;40085;53.004;6.770;2023-02-15T11:02:25;7.70;99.90
54178;DHT22;40085;53.004;6.770;2023-02-15T11:07:48;8.00;99.90
54178;DHT22;40085;53.004;6.770;2023-02-15T11:10:38;8.10;99.90
54178;DHT22;40085;53.004;6.770;2023-02-15T11:13:09;8.20;99.90
54178;DHT22;40085;53.004;6.770;2023-02-15T11:18:21;8.50;99.90
54178;DHT22;40085;53.004;6.770;2023-02-15T11:21:06;8.70;99.90
54178;DHT22;40085;53.004;6.770;2023-02-15T11:23:35;8.70;99.90
54178;DHT22;40085;53.004;6.770;2023-02-15T11:28:31;8.90;99.90
54178;DHT22;40085;53.004;6.770;2023-02-15T11:31:02;9.00;99.90
54178;DHT22;40085;53.004;6.770;2023-02-15T11:33:31;9.20;99.90
54178;DHT22;40085;53.004;6.770;2023-02-15T11:36:13;9.30;99.90
54178;DHT22;40085;53.004;6.770;2023-02-15T11:38:39;9.50;99.90
54178;DHT22;40085;53.004;6.770;2023-02-15T11:41:11;9.80;99.90
54178;DHT22;40085;53.004;6.770;2023-02-15T11:43:46;9.70;99.90
54178;DHT22;40085;53.004;6.770;2023-02-15T11:46:15;10.00;99.90
54178;DHT22;40085;53.004;6.770;2023-02-15T11:48:41;10.10;57.60
54178;DHT22;40085;53.004;6.770;2023-02-15T11:51:19;10.40;74.00
54178;DHT22;40085;53.004;6.770;2023-02-15T11:53:46;10.60;30.20
54178;DHT22;40085;53.004;6.770;2023-02-15T11:56:17;10.70;1.00
54178;DHT22;40085;53.004;6.770;2023-02-15T11:58:47;10.60;1.00
54178;DHT22;40085;53.004;6.770;2023-02-15T12:01:44;10.50;1.00
54178;DHT22;40085;53.004;6.770;2023-02-15T12:04:24;10.60;1.00
54178;DHT22;40085;53.004;6.770;2023-02-15T12:09:50;11.00;1.00
54178;DHT22;40085;53.004;6.770;2023-02-15T12:12:30;11.30;1.00
54178;DHT22;40085;53.004;6.770;2023-02-15T12:14:59;11.50;1.00
54178;DHT22;40085;53.004;6.770;2023-02-15T12:17:34;11.70;1.00
54178;DHT22;40085;53.004;6.770;2023-02-15T12:20:05;11.80;1.00
54178;DHT22;40085;53.004;6.770;2023-02-15T12:22:34;11.80;1.00
54178;DHT22;40085;53.004;6.770;2023-02-15T12:25:11;11.90;99.90
54178;DHT22;40085;53.004;6.770;2023-02-15T12:27:46;11.90;1.00
54178;DHT22;40085;53.004;6.770;2023-02-15T12:30:21;12.00;1.00
54178;DHT22;40085;53.004;6.770;2023-02-15T12:32:54;11.90;1.00
54178;DHT22;40085;53.004;6.770;2023-02-15T12:35:32;12.60;99.90
54178;DHT22;40085;53.004;6.770;2023-02-15T12:38:21;12.30;99.90
54178;DHT22;40085;53.004;6.770;2023-02-15T12:41:23;12.50;99.90
54178;DHT22;40085;53.004;6.770;2023-02-15T12:46:29;12.90;99.90
54178;DHT22;40085;53.004;6.770;2023-02-15T12:49:19;12.90;99.90
54178;DHT22;40085;53.004;6.770;2023-02-15T12:54:41;12.60;99.90
54178;DHT22;40085;53.004;6.770;2023-02-15T12:57:26;12.90;99.90
54178;DHT22;40085;53.004;6.770;2023-02-15T13:00:05;13.00;99.90
54178;DHT22;40085;53.004;6.770;2023-02-15T13:07:46;12.90;99.90
54178;DHT22;40085;53.004;6.770;2023-02-15T13:11:19;12.70;1.00
54178;DHT22;40085;53.004;6.770;2023-02-15T13:13:27;12.50;99.90
54178;DHT22;40085;53.004;6.770;2023-02-15T13:16:00;12.30;99.90
54178;DHT22;40085;53.004;6.770;2023-02-15T13:20:56;12.10;99.90
54178;DHT22;40085;53.004;6.770;2023-02-15T13:23:29;12.00;99.90
54178;DHT22;40085;53.004;6.770;2023-02-15T13:25:59;12.00;99.90
54178;DHT22;40085;53.004;6.770;2023-02-15T13:28:39;11.90;1.00
54178;DHT22;40085;53.004;6.770;2023-02-15T13:31:12;11.70;1.00
54178;DHT22;40085;53.004;6.770;2023-02-15T13:33:43;12.50;1.00
54178;DHT22;40085;53.004;6.770;2023-02-15T13:36:21;12.40;99.90
54178;DHT22;40085;53.004;6.770;2023-02-15T13:41:44;11.50;99.90
54178;DHT22;40085;53.004;6.770;2023-02-15T13:44:24;11.50;1.00
54178;DHT22;40085;53.004;6.770;2023-02-15T13:52:25;11.20;99.90
54178;DHT22;40085;53.004;6.770;2023-02-15T14:00:24;11.20;1.00
54178;DHT22;40085;53.004;6.770;2023-02-15T14:03:19;11.20;1.00
54178;DHT22;40085;53.004;6.770;2023-02-15T14:22:46;11.20;75.40
54178;DHT22;40085;53.004;6.770;2023-02-15T14:25:33;11.10;99.90
54178;DHT22;40085;53.004;6.770;2023-02-15T14:28:17;11.10;92.00
54178;DHT22;40085;53.004;6.770;2023-02-15T14:30:49;11.10;91.00
54178;DHT22;40085;53.004;6.770;2023-02-15T14:33:34;11.00;99.40
54178;DHT22;40085;53.004;6.770;2023-02-15T14:36:02;11.00;9.20
54178;DHT22;40085;53.004;6.770;2023-02-15T14:38:43;10.90;58.80
54178;DHT22;40085;53.004;6.770;2023-02-15T14:49:32;10.70;99.90
54178;DHT22;40085;53.004;6.770;2023-02-15T14:52:07;10.60;99.90
54178;DHT22;40085;53.004;6.770;2023-02-15T14:59:49;10.50;99.90
54178;DHT22;40085;53.004;6.770;2023-02-15T15:02:49;10.60;99.90
54178;DHT22;40085;53.004;6.770;2023-02-15T15:05:34;10.50;99.90
54178;DHT22;40085;53.004;6.770;2023-02-15T15:08:03;10.50;99.90
54178;DHT22;40085;53.004;6.770;2023-02-15T15:22:24;10.40;99.90
54178;DHT22;40085;53.004;6.770;2023-02-15T15:24:53;10.30;99.90
54178;DHT22;40085;53.004;6.770;2023-02-15T15:27:42;10.30;99.90
54178;DHT22;40085;53.004;6.770;2023-02-15T15:41:24;10.10;99.90
54178;DHT22;40085;53.004;6.770;2023-02-15T15:44:19;10.00;99.90
54178;DHT22;40085;53.004;6.770;2023-02-15T15:46:56;10.00;99.90
54178;DHT22;40085;53.004;6.770;2023-02-15T15:49:30;10.60;99.90
54178;DHT22;40085;53.004;6.770;2023-02-15T15:52:00;9.80;99.90
54178;DHT22;40085;53.004;6.770;2023-02-15T15:54:27;9.80;99.90
54178;DHT22;40085;53.004;6.770;2023-02-15T15:56:57;9.80;99.90
54178;DHT22;40085;53.004;6.770;2023-02-15T15:59:25;9.70;99.90
54178;DHT22;40085;53.004;6.770;2023-02-15T16:01:52;9.60;1.00
54178;DHT22;40085;53.004;6.770;2023-02-15T16:04:28;9.60;1.00
54178;DHT22;40085;53.004;6.770;2023-02-15T16:06:56;9.60;1.00
54178;DHT22;40085;53.004;6.770;2023-02-15T16:09:27;9.50;1.00
54178;DHT22;40085;53.004;6.770;2023-02-15T16:11:59;9.40;1.00
54178;DHT22;40085;53.004;6.770;2023-02-15T16:14:32;9.30;1.00
54178;DHT22;40085;53.004;6.770;2023-02-15T16:17:02;9.30;1.00
54178;DHT22;40085;53.004;6.770;2023-02-15T16:19:33;9.20;1.00
54178;DHT22;40085;53.004;6.770;2023-02-15T16:22:01;9.20;1.00
54178;DHT22;40085;53.004;6.770;2023-02-15T16:24:52;9.10;1.00
54178;DHT22;40085;53.004;6.770;2023-02-15T16:27:37;9.10;1.00
54178;DHT22;40085;53.004;6.770;2023-02-15T16:33:13;9.00;1.00
54178;DHT22;40085;53.004;6.770;2023-02-15T16:35:57;8.90;1.00
54178;DHT22;40085;53.004;6.770;2023-02-15T16:43:48;8.70;1.00
54178;DHT22;40085;53.004;6.770;2023-02-15T16:46:18;8.70;1.00
54178;DHT22;40085;53.004;6.770;2023-02-15T16:48:47;8.60;1.00
54178;DHT22;40085;53.004;6.770;2023-02-15T16:51:34;8.60;1.00
54178;DHT22;40085;53.004;6.770;2023-02-15T16:54:05;8.60;1.00
54178;DHT22;40085;53.004;6.770;2023-02-15T16:56:32;8.60;1.00
54178;DHT22;40085;53.004;6.770;2023-02-15T16:58:59;8.90;1.00
54178;DHT22;40085;53.004;6.770;2023-02-15T17:01:31;8.80;1.00
54178;DHT22;40085;53.004;6.770;2023-02-15T17:04:28;8.50;1.00
54178;DHT22;40085;53.004;6.770;2023-02-15T17:07:18;8.50;1.00
54178;DHT22;40085;53.004;6.770;2023-02-15T17:09:51;8.50;1.00
54178;DHT22;40085;53.004;6.770;2023-02-15T17:12:55;8.40;2.40
54178;DHT22;40085;53.004;6.770;2023-02-15T17:15:42;8.40;2.50
54178;DHT22;40085;53.004;6.770;2023-02-15T17:18:22;8.30;10.40
54178;DHT22;40085;53.004;6.770;2023-02-15T17:20:50;8.20;13.00
54178;DHT22;40085;53.004;6.770;2023-02-15T17:23:42;8.10;19.00
54178;DHT22;40085;53.004;6.770;2023-02-15T17:26:12;8.10;22.30
54178;DHT22;40085;53.004;6.770;2023-02-15T17:28:49;8.00;20.30
54178;DHT22;40085;53.004;6.770;2023-02-15T17:31:17;8.00;26.90
54178;DHT22;40085;53.004;6.770;2023-02-15T17:33:44;8.00;27.50
54178;DHT22;40085;53.004;6.770;2023-02-15T17:38:42;8.00;28.10
54178;DHT22;40085;53.004;6.770;2023-02-15T17:41:34;8.00;24.20
54178;DHT22;40085;53.004;6.770;2023-02-15T17:44:03;8.00;30.90
54178;DHT22;40085;53.004;6.770;2023-02-15T17:46:33;8.00;35.90
54178;DHT22;40085;53.004;6.770;2023-02-15T17:49:00;8.00;33.20
54178;DHT22;40085;53.004;6.770;2023-02-15T17:51:26;7.90;35.80
54178;DHT22;40085;53.004;6.770;2023-02-15T17:53:52;7.80;41.10
54178;DHT22;40085;53.004;6.770;2023-02-15T17:56:37;7.70;47.90
54178;DHT22;40085;53.004;6.770;2023-02-15T17:59:03;7.70;53.40
54178;DHT22;40085;53.004;6.770;2023-02-15T18:01:33;7.70;53.50
54178;DHT22;40085;53.004;6.770;2023-02-15T18:04:17;7.70;54.60
54178;DHT22;40085;53.004;6.770;2023-02-15T18:07:02;7.50;55.00
54178;DHT22;40085;53.004;6.770;2023-02-15T18:09:46;7.50;61.00
54178;DHT22;40085;53.004;6.770;2023-02-15T18:12:33;7.40;62.60
54178;DHT22;40085;53.004;6.770;2023-02-15T18:14:59;8.20;70.90
54178;DHT22;40085;53.004;6.770;2023-02-15T18:17:35;7.90;67.70
54178;DHT22;40085;53.004;6.770;2023-02-15T18:20:03;7.50;69.50
54178;DHT22;40085;53.004;6.770;2023-02-15T18:22:30;7.60;72.10
54178;DHT22;40085;53.004;6.770;2023-02-15T18:24:56;7.50;67.40
54178;DHT22;40085;53.004;6.770;2023-02-15T18:27:22;7.60;73.90
54178;DHT22;40085;53.004;6.770;2023-02-15T18:29:47;7.60;71.70
54178;DHT22;40085;53.004;6.770;2023-02-15T18:32:35;7.60;71.20
54178;DHT22;40085;53.004;6.770;2023-02-15T18:35:02;7.50;69.90
54178;DHT22;40085;53.004;6.770;2023-02-15T18:37:30;7.50;70.60
54178;DHT22;40085;53.004;6.770;2023-02-15T18:39:58;7.40;74.80
54178;DHT22;40085;53.004;6.770;2023-02-15T18:42:25;7.30;75.90
54178;DHT22;40085;53.004;6.770;2023-02-15T18:44:57;7.30;77.30
54178;DHT22;40085;53.004;6.770;2023-02-15T18:47:23;7.30;81.50
54178;DHT22;40085;53.004;6.770;2023-02-15T18:49:49;7.20;79.70
54178;DHT22;40085;53.004;6.770;2023-02-15T18:52:21;7.30;84.10
54178;DHT22;40085;53.004;6.770;2023-02-15T18:54:54;7.20;86.90
54178;DHT22;40085;53.004;6.770;2023-02-15T18:57:20;7.30;85.50
54178;DHT22;40085;53.004;6.770;2023-02-15T18:59:46;7.20;85.20
54178;DHT22;40085;53.004;6.770;2023-02-15T19:02:12;7.10;85.00
54178;DHT22;40085;53.004;6.770;2023-02-15T19:04:38;7.20;89.00
54178;DHT22;40085;53.004;6.770;2023-02-15T19:07:04;7.00;87.50
54178;DHT22;40085;53.004;6.770;2023-02-15T19:09:30;7.10;90.40
54178;DHT22;40085;53.004;6.770;2023-02-15T19:11:57;7.10;92.50
54178;DHT22;40085;53.004;6.770;2023-02-15T19:14:28;7.00;92.00
54178;DHT22;40085;53.004;6.770;2023-02-15T19:16:55;6.90;92.60
54178;DHT22;40085;53.004;6.770;2023-02-15T19:19:22;6.80;91.30
54178;DHT22;40085;53.004;6.770;2023-02-15T19:21:48;6.90;91.30
54178;DHT22;40085;53.004;6.770;2023-02-15T19:24:18;6.90;90.80
54178;DHT22;40085;53.004;6.770;2023-02-15T19:26:45;6.90;92.80
54178;DHT22;40085;53.004;6.770;2023-02-15T19:29:13;6.90;92.70
54178;DHT22;40085;53.004;6.770;2023-02-15T19:31:39;6.90;92.60
54178;DHT22;40085;53.004;6.770;2023-02-15T19:34:15;6.80;92.40
54178;DHT22;40085;53.004;6.770;2023-02-15T19:36:46;6.80;92.30
54178;DHT22;40085;53.004;6.770;2023-02-15T19:39:23;6.80;93.00